sensor_id;sensor_type;location;lat;lon;timestamp;pressure;altitude;pressure_sealevel;temperature;humidity
64853;BME280;56050;55.558;-4.644;2022-11-21T00:00:51;100306.28;;;6.24;69.27
64853;BME280;56050;55.558;-4.644;2022-11-21T00:03:16;100311.63;;;6.24;69.28
64853;BME280;56050;55.558;-4.644;2022-11-21T00:05:43;100296.34;;;6.24;69.19
64853;BME280;56050;55.558;-4.644;2022-11-21T00:08:11;100284.47;;;6.22;69.31
64853;BME280;56050;55.558;-4.644;2022-11-21T00:10:37;100283.31;;;6.19;69.28
64853;BME280;56050;55.558;-4.644;2022-11-21T00:13:04;100276.44;;;6.18;69.46
64853;BME280;56050;55.558;-4.644;2022-11-21T00:15:30;100288.66;;;6.19;69.56
64853;BME280;56050;55.558;-4.644;2022-11-21T00:17:56;100291.31;;;6.19;69.54
64853;BME280;56050;55.558;-4.644;2022-11-21T00:20:22;100288.69;;;6.23;69.42
64853;BME280;56050;55.558;-4.644;2022-11-21T00:22:48;100287.56;;;6.24;69.54
64853;BME280;56050;55.558;-4.644;2022-11-21T00:25:14;100287.91;;;6.22;69.52
64853;BME280;56050;55.558;-4.644;2022-11-21T00:27:39;100284.16;;;6.27;69.66
64853;BME280;56050;55.558;-4.644;2022-11-21T00:30:07;100283.78;;;6.28;69.42
64853;BME280;56050;55.558;-4.644;2022-11-21T00:32:33;100284.16;;;6.27;69.54
64853;BME280;56050;55.558;-4.644;2022-11-21T00:34:59;100281.50;;;6.27;69.33
64853;BME280;56050;55.558;-4.644;2022-11-21T00:37:24;100274.59;;;6.26;69.33
64853;BME280;56050;55.558;-4.644;2022-11-21T00:39:50;100275.72;;;6.25;69.47
64853;BME280;56050;55.558;-4.644;2022-11-21T00:42:15;100272.66;;;6.23;69.32
64853;BME280;56050;55.558;-4.644;2022-11-21T00:44:40;100268.44;;;6.22;69.39
64853;BME280;56050;55.558;-4.644;2022-11-21T00:47:06;100263.81;;;6.19;69.35
64853;BME280;56050;55.558;-4.644;2022-11-21T00:49:31;100264.59;;;6.19;69.26
64853;BME280;56050;55.558;-4.644;2022-11-21T00:51:57;100261.50;;;6.17;69.32
64853;BME280;56050;55.558;-4.644;2022-11-21T00:54:22;100264.19;;;6.17;69.31
64853;BME280;56050;55.558;-4.644;2022-11-21T00:56:47;100261.13;;;6.15;69.18
64853;BME280;56050;55.558;-4.644;2022-11-21T00:59:13;100259.56;;;6.14;69.36
64853;BME280;56050;55.558;-4.644;2022-11-21T01:01:38;100253.44;;;6.14;69.31
64853;BME280;56050;55.558;-4.644;2022-11-21T01:04:04;100251.94;;;6.13;69.35
64853;BME280;56050;55.558;-4.644;2022-11-21T01:06:29;100253.78;;;6.09;69.27
64853;BME280;56050;55.558;-4.644;2022-11-21T01:08:56;100248.38;;;6.05;69.34
64853;BME280;56050;55.558;-4.644;2022-11-21T01:11:22;100247.22;;;6.03;69.50
64853;BME280;56050;55.558;-4.644;2022-11-21T01:13:48;100249.13;;;6.02;69.46
64853;BME280;56050;55.558;-4.644;2022-11-21T01:16:15;100240.72;;;6.00;69.51
64853;BME280;56050;55.558;-4.644;2022-11-21T01:18:41;100242.97;;;5.98;69.28
64853;BME280;56050;55.558;-4.644;2022-11-21T01:21:12;100239.53;;;5.98;69.43
64853;BME280;56050;55.558;-4.644;2022-11-21T01:23:38;100233.41;;;5.97;69.33
64853;BME280;56050;55.558;-4.644;2022-11-21T01:26:05;100228.06;;;5.94;69.46
64853;BME280;56050;55.558;-4.644;2022-11-21T01:28:31;100227.22;;;5.89;69.51
64853;BME280;56050;55.558;-4.644;2022-11-21T01:33:48;100219.94;;;5.86;69.63
64853;BME280;56050;55.558;-4.644;2022-11-21T01:36:18;100222.19;;;5.84;69.59
64853;BME280;56050;55.558;-4.644;2022-11-21T01:38:49;100207.66;;;5.82;69.41
64853;BME280;56050;55.558;-4.644;2022-11-21T01:41:19;100204.16;;;5.78;69.54
64853;BME280;56050;55.558;-4.644;2022-11-21T01:43:45;100195.75;;;5.76;69.53
64853;BME280;56050;55.558;-4.644;2022-11-21T01:51:21;100174.72;;;5.71;69.70
64853;BME280;56050;55.558;-4.644;2022-11-21T01:56:29;100167.03;;;5.69;69.85
64853;BME280;56050;55.558;-4.644;2022-11-21T01:58:58;100161.34;;;5.71;70.14
64853;BME280;56050;55.558;-4.644;2022-11-21T02:01:25;100160.19;;;5.72;70.13
64853;BME280;56050;55.558;-4.644;2022-11-21T02:03:53;100151.06;;;5.73;70.31
64853;BME280;56050;55.558;-4.644;2022-11-21T02:06:22;100145.34;;;5.74;70.20
64853;BME280;56050;55.558;-4.644;2022-11-21T02:08:50;100139.59;;;5.72;70.16
64853;BME280;56050;55.558;-4.644;2022-11-21T02:11:46;100123.94;;;5.71;69.96
64853;BME280;56050;55.558;-4.644;2022-11-21T02:14:14;100105.25;;;5.71;70.06
64853;BME280;56050;55.558;-4.644;2022-11-21T02:16:40;100099.13;;;5.70;70.02
64853;BME280;56050;55.558;-4.644;2022-11-21T02:19:09;100087.31;;;5.71;70.08
64853;BME280;56050;55.558;-4.644;2022-11-21T02:21:51;100075.47;;;5.72;70.06
64853;BME280;56050;55.558;-4.644;2022-11-21T02:24:37;100070.94;;;5.76;70.13
64853;BME280;56050;55.558;-4.644;2022-11-21T02:27:05;100070.94;;;5.80;70.11
64853;BME280;56050;55.558;-4.644;2022-11-21T02:29:30;100072.53;;;5.84;70.22
64853;BME280;56050;55.558;-4.644;2022-11-21T02:32:02;100060.69;;;5.85;70.10
64853;BME280;56050;55.558;-4.644;2022-11-21T02:34:29;100056.16;;;5.89;70.09
64853;BME280;56050;55.558;-4.644;2022-11-21T02:36:55;100058.47;;;5.91;70.08
64853;BME280;56050;55.558;-4.644;2022-11-21T02:39:31;100047.75;;;5.91;70.13
64853;BME280;56050;55.558;-4.644;2022-11-21T02:42:33;100048.19;;;5.93;70.14
64853;BME280;56050;55.558;-4.644;2022-11-21T02:45:18;100039.78;;;5.95;70.05
64853;BME280;56050;55.558;-4.644;2022-11-21T02:47:45;100040.16;;;5.97;70.12
64853;BME280;56050;55.558;-4.644;2022-11-21T02:50:19;100020.72;;;5.96;70.10
64853;BME280;56050;55.558;-4.644;2022-11-21T02:52:48;100028.34;;;5.98;69.97
64853;BME280;56050;55.558;-4.644;2022-11-21T02:55:13;100021.50;;;6.00;69.99
64853;BME280;56050;55.558;-4.644;2022-11-21T02:57:40;100018.81;;;6.00;69.88
64853;BME280;56050;55.558;-4.644;2022-11-21T03:00:07;100014.25;;;6.01;70.07
64853;BME280;56050;55.558;-4.644;2022-11-21T03:02:33;100014.63;;;6.03;70.05
64853;BME280;56050;55.558;-4.644;2022-11-21T03:04:59;100012.75;;;6.07;70.08
64853;BME280;56050;55.558;-4.644;2022-11-21T03:07:25;100004.34;;;6.08;70.19
64853;BME280;56050;55.558;-4.644;2022-11-21T03:09:50;100009.34;;;6.13;70.24
64853;BME280;56050;55.558;-4.644;2022-11-21T03:12:15;99996.75;;;6.14;69.95
64853;BME280;56050;55.558;-4.644;2022-11-21T03:14:40;100002.13;;;6.17;70.00
64853;BME280;56050;55.558;-4.644;2022-11-21T03:17:06;99990.28;;;6.18;70.04
64853;BME280;56050;55.558;-4.644;2022-11-21T03:19:31;99983.44;;;6.21;69.91
64853;BME280;56050;55.558;-4.644;2022-11-21T03:21:57;99968.91;;;6.22;69.95
64853;BME280;56050;55.558;-4.644;2022-11-21T03:24:22;99960.53;;;6.23;69.87
64853;BME280;56050;55.558;-4.644;2022-11-21T03:26:47;99959.34;;;6.24;69.85
64853;BME280;56050;55.558;-4.644;2022-11-21T03:29:13;99956.31;;;6.26;70.00
64853;BME280;56050;55.558;-4.644;2022-11-21T03:31:38;99947.56;;;6.29;69.89
64853;BME280;56050;55.558;-4.644;2022-11-21T03:34:03;99941.47;;;6.32;69.98
64853;BME280;56050;55.558;-4.644;2022-11-21T03:36:29;99938.03;;;6.35;69.81
64853;BME280;56050;55.558;-4.644;2022-11-21T03:38:55;99934.19;;;6.36;69.76
64853;BME280;56050;55.558;-4.644;2022-11-21T03:41:24;99944.91;;;6.36;69.93
64853;BME280;56050;55.558;-4.644;2022-11-21T03:44:06;99928.84;;;6.36;69.99
64853;BME280;56050;55.558;-4.644;2022-11-21T03:46:34;99921.63;;;6.40;69.90
64853;BME280;56050;55.558;-4.644;2022-11-21T03:49:00;99921.22;;;6.41;69.88
64853;BME280;56050;55.558;-4.644;2022-11-21T03:51:26;99907.88;;;6.45;69.89
64853;BME280;56050;55.558;-4.644;2022-11-21T03:53:52;99907.88;;;6.45;69.91
64853;BME280;56050;55.558;-4.644;2022-11-21T03:56:17;99902.91;;;6.47;69.82
64853;BME280;56050;55.558;-4.644;2022-11-21T03:58:43;99909.03;;;6.51;69.97
64853;BME280;56050;55.558;-4.644;2022-11-21T04:01:09;99902.94;;;6.54;69.92
64853;BME280;56050;55.558;-4.644;2022-11-21T04:03:34;99909.03;;;6.55;69.90
64853;BME280;56050;55.558;-4.644;2022-11-21T04:06:00;99899.13;;;6.59;69.83
64853;BME280;56050;55.558;-4.644;2022-11-21T04:08:26;99894.53;;;6.59;69.84
64853;BME280;56050;55.558;-4.644;2022-11-21T04:10:51;99892.22;;;6.61;69.88
64853;BME280;56050;55.558;-4.644;2022-11-21T04:13:19;99884.59;;;6.63;69.83
64853;BME280;56050;55.558;-4.644;2022-11-21T04:15:45;99874.66;;;6.64;69.79
64853;BME280;56050;55.558;-4.644;2022-11-21T04:18:10;99874.66;;;6.67;69.80
64853;BME280;56050;55.558;-4.644;2022-11-21T04:20:36;99861.28;;;6.67;69.78
64853;BME280;56050;55.558;-4.644;2022-11-21T04:23:02;99856.31;;;6.69;69.74
64853;BME280;56050;55.558;-4.644;2022-11-21T04:25:27;99849.44;;;6.72;69.81
64853;BME280;56050;55.558;-4.644;2022-11-21T04:27:59;99841.03;;;6.73;69.82
64853;BME280;56050;55.558;-4.644;2022-11-21T04:30:26;99841.41;;;6.75;69.66
64853;BME280;56050;55.558;-4.644;2022-11-21T04:32:53;99835.66;;;6.77;69.68
64853;BME280;56050;55.558;-4.644;2022-11-21T04:35:19;99826.13;;;6.79;69.72
64853;BME280;56050;55.558;-4.644;2022-11-21T04:37:44;99818.84;;;6.83;69.54
64853;BME280;56050;55.558;-4.644;2022-11-21T04:40:10;99808.91;;;6.84;69.68
64853;BME280;56050;55.558;-4.644;2022-11-21T04:42:36;99810.47;;;6.85;69.62
64853;BME280;56050;55.558;-4.644;2022-11-21T04:45:01;99804.31;;;6.88;69.59
64853;BME280;56050;55.558;-4.644;2022-11-21T04:47:27;99803.94;;;6.89;69.60
64853;BME280;56050;55.558;-4.644;2022-11-21T04:49:52;99798.97;;;6.91;69.48
64853;BME280;56050;55.558;-4.644;2022-11-21T04:52:18;99797.81;;;6.92;69.44
64853;BME280;56050;55.558;-4.644;2022-11-21T04:54:43;99796.28;;;6.95;69.41
64853;BME280;56050;55.558;-4.644;2022-11-21T04:57:09;99801.25;;;6.96;69.47
64853;BME280;56050;55.558;-4.644;2022-11-21T04:59:34;99797.81;;;6.99;69.50
64853;BME280;56050;55.558;-4.644;2022-11-21T05:02:01;99792.44;;;6.99;69.41
64853;BME280;56050;55.558;-4.644;2022-11-21T05:04:27;99792.44;;;6.99;69.33
64853;BME280;56050;55.558;-4.644;2022-11-21T05:06:52;99776.75;;;7.01;69.47
64853;BME280;56050;55.558;-4.644;2022-11-21T05:09:18;99766.44;;;7.00;69.32
64853;BME280;56050;55.558;-4.644;2022-11-21T05:11:43;99758.00;;;7.01;69.33
64853;BME280;56050;55.558;-4.644;2022-11-21T05:14:26;99746.94;;;6.99;69.40
64853;BME280;56050;55.558;-4.644;2022-11-21T05:16:52;99745.78;;;7.00;69.54
64853;BME280;56050;55.558;-4.644;2022-11-21T05:19:17;99741.97;;;6.98;69.51
64853;BME280;56050;55.558;-4.644;2022-11-21T05:21:43;99741.59;;;6.99;69.57
64853;BME280;56050;55.558;-4.644;2022-11-21T05:24:08;99737.00;;;7.00;69.71
64853;BME280;56050;55.558;-4.644;2022-11-21T05:26:33;99732.41;;;7.00;69.57
64853;BME280;56050;55.558;-4.644;2022-11-21T05:28:59;99710.22;;;7.00;69.79
64853;BME280;56050;55.558;-4.644;2022-11-21T05:31:24;99707.16;;;7.01;69.71
64853;BME280;56050;55.558;-4.644;2022-11-21T05:33:49;99701.78;;;7.01;69.83
64853;BME280;56050;55.558;-4.644;2022-11-21T05:36:15;99695.28;;;7.02;69.87
64853;BME280;56050;55.558;-4.644;2022-11-21T05:38:40;99691.84;;;7.02;69.80
64853;BME280;56050;55.558;-4.644;2022-11-21T05:41:06;99682.31;;;7.01;69.98
64853;BME280;56050;55.558;-4.644;2022-11-21T05:43:31;99688.81;;;7.03;69.84
64853;BME280;56050;55.558;-4.644;2022-11-21T05:46:19;99679.22;;;7.02;69.95
64853;BME280;56050;55.558;-4.644;2022-11-21T05:48:46;99672.34;;;7.01;70.23
64853;BME280;56050;55.558;-4.644;2022-11-21T05:51:13;99665.06;;;7.05;70.00
64853;BME280;56050;55.558;-4.644;2022-11-21T05:53:38;99661.25;;;7.06;70.20
64853;BME280;56050;55.558;-4.644;2022-11-21T05:56:14;99657.41;;;7.07;70.27
64853;BME280;56050;55.558;-4.644;2022-11-21T05:58:41;99652.81;;;7.08;70.15
64853;BME280;56050;55.558;-4.644;2022-11-21T06:01:06;99645.53;;;7.12;70.13
64853;BME280;56050;55.558;-4.644;2022-11-21T06:03:35;99642.47;;;7.14;70.08
64853;BME280;56050;55.558;-4.644;2022-11-21T06:06:09;99639.41;;;7.15;70.20
64853;BME280;56050;55.558;-4.644;2022-11-21T06:08:41;99633.66;;;7.17;70.06
64853;BME280;56050;55.558;-4.644;2022-11-21T06:11:08;99632.50;;;7.18;70.13
64853;BME280;56050;55.558;-4.644;2022-11-21T06:13:34;99632.13;;;7.19;70.43
64853;BME280;56050;55.558;-4.644;2022-11-21T06:16:09;99611.81;;;7.22;70.14
64853;BME280;56050;55.558;-4.644;2022-11-21T06:18:37;99614.13;;;7.23;70.36
64853;BME280;56050;55.558;-4.644;2022-11-21T06:21:24;99609.13;;;7.25;70.30
64853;BME280;56050;55.558;-4.644;2022-11-21T06:23:52;99612.16;;;7.31;70.20
64853;BME280;56050;55.558;-4.644;2022-11-21T06:26:21;99604.91;;;7.31;70.10
64853;BME280;56050;55.558;-4.644;2022-11-21T06:28:47;99593.78;;;7.33;70.07
64853;BME280;56050;55.558;-4.644;2022-11-21T06:31:16;99599.13;;;7.36;70.13
64853;BME280;56050;55.558;-4.644;2022-11-21T06:33:43;99597.97;;;7.37;69.96
64853;BME280;56050;55.558;-4.644;2022-11-21T06:36:13;99592.22;;;7.39;69.97
64853;BME280;56050;55.558;-4.644;2022-11-21T06:38:40;99593.38;;;7.38;70.03
64853;BME280;56050;55.558;-4.644;2022-11-21T06:41:16;99592.97;;;7.39;70.04
64853;BME280;56050;55.558;-4.644;2022-11-21T06:43:42;99584.53;;;7.41;69.86
64853;BME280;56050;55.558;-4.644;2022-11-21T06:46:08;99575.38;;;7.42;70.09
64853;BME280;56050;55.558;-4.644;2022-11-21T06:48:34;99579.56;;;7.43;69.90
64853;BME280;56050;55.558;-4.644;2022-11-21T06:51:04;99572.69;;;7.42;69.61
64853;BME280;56050;55.558;-4.644;2022-11-21T06:53:30;99567.69;;;7.44;69.91
64853;BME280;56050;55.558;-4.644;2022-11-21T06:56:00;99548.94;;;7.44;69.80
64853;BME280;56050;55.558;-4.644;2022-11-21T06:58:26;99537.84;;;7.45;69.76
64853;BME280;56050;55.558;-4.644;2022-11-21T07:00:52;99535.53;;;7.44;69.69
64853;BME280;56050;55.558;-4.644;2022-11-21T07:03:17;99532.84;;;7.44;69.76
64853;BME280;56050;55.558;-4.644;2022-11-21T07:05:43;99526.34;;;7.45;69.74
64853;BME280;56050;55.558;-4.644;2022-11-21T07:08:08;99522.50;;;7.46;69.58
64853;BME280;56050;55.558;-4.644;2022-11-21T07:10:33;99537.03;;;7.48;69.51
64853;BME280;56050;55.558;-4.644;2022-11-21T07:13:00;99533.19;;;7.49;69.31
64853;BME280;56050;55.558;-4.644;2022-11-21T07:15:44;99534.31;;;7.52;69.34
64853;BME280;56050;55.558;-4.644;2022-11-21T07:18:10;99532.81;;;7.51;69.35
64853;BME280;56050;55.558;-4.644;2022-11-21T07:20:36;99529.75;;;7.52;69.42
64853;BME280;56050;55.558;-4.644;2022-11-21T07:23:02;99522.47;;;7.53;69.19
64853;BME280;56050;55.558;-4.644;2022-11-21T07:25:27;99516.31;;;7.56;69.15
64853;BME280;56050;55.558;-4.644;2022-11-21T07:27:53;99514.78;;;7.55;68.95
64853;BME280;56050;55.558;-4.644;2022-11-21T07:30:18;99507.16;;;7.53;68.99
64853;BME280;56050;55.558;-4.644;2022-11-21T07:32:43;99516.34;;;7.52;68.90
64853;BME280;56050;55.558;-4.644;2022-11-21T07:35:09;99501.81;;;7.50;68.92
64853;BME280;56050;55.558;-4.644;2022-11-21T07:37:38;99497.25;;;7.47;68.91
64853;BME280;56050;55.558;-4.644;2022-11-21T07:40:06;99499.56;;;7.45;69.01
64853;BME280;56050;55.558;-4.644;2022-11-21T07:42:32;99498.03;;;7.44;68.91
64853;BME280;56050;55.558;-4.644;2022-11-21T07:44:57;99498.03;;;7.44;69.10
64853;BME280;56050;55.558;-4.644;2022-11-21T07:47:23;99483.50;;;7.45;68.91
64853;BME280;56050;55.558;-4.644;2022-11-21T07:49:48;99479.63;;;7.46;68.92
64853;BME280;56050;55.558;-4.644;2022-11-21T07:52:14;99485.00;;;7.46;68.84
64853;BME280;56050;55.558;-4.644;2022-11-21T07:54:39;99470.03;;;7.48;68.95
64853;BME280;56050;55.558;-4.644;2022-11-21T07:57:04;99460.09;;;7.49;68.72
64853;BME280;56050;55.558;-4.644;2022-11-21T07:59:29;99465.06;;;7.50;68.69
64853;BME280;56050;55.558;-4.644;2022-11-21T08:01:55;99451.25;;;7.52;68.50
64853;BME280;56050;55.558;-4.644;2022-11-21T08:04:20;99443.63;;;7.50;68.57
64853;BME280;56050;55.558;-4.644;2022-11-21T08:06:45;99447.47;;;7.49;68.44
64853;BME280;56050;55.558;-4.644;2022-11-21T08:09:11;99449.75;;;7.51;68.45
64853;BME280;56050;55.558;-4.644;2022-11-21T08:11:36;99429.47;;;7.50;68.42
64853;BME280;56050;55.558;-4.644;2022-11-21T08:14:01;99437.50;;;7.50;68.39
64853;BME280;56050;55.558;-4.644;2022-11-21T08:16:27;99426.03;;;7.49;68.35
64853;BME280;56050;55.558;-4.644;2022-11-21T08:18:54;99422.97;;;7.47;68.31
64853;BME280;56050;55.558;-4.644;2022-11-21T08:21:20;99423.75;;;7.48;68.29
64853;BME280;56050;55.558;-4.644;2022-11-21T08:23:46;99407.69;;;7.48;68.30
64853;BME280;56050;55.558;-4.644;2022-11-21T08:26:11;99406.13;;;7.50;68.31
64853;BME280;56050;55.558;-4.644;2022-11-21T08:28:36;99404.94;;;7.51;68.07
64853;BME280;56050;55.558;-4.644;2022-11-21T08:31:02;99410.31;;;7.51;68.18
64853;BME280;56050;55.558;-4.644;2022-11-21T08:33:28;99413.75;;;7.52;68.07
64853;BME280;56050;55.558;-4.644;2022-11-21T08:35:54;99406.44;;;7.56;68.11
64853;BME280;56050;55.558;-4.644;2022-11-21T08:38:19;99411.41;;;7.57;68.25
64853;BME280;56050;55.558;-4.644;2022-11-21T08:40:44;99410.25;;;7.58;67.92
64853;BME280;56050;55.558;-4.644;2022-11-21T08:43:10;99411.38;;;7.61;67.94
64853;BME280;56050;55.558;-4.644;2022-11-21T08:45:36;99413.66;;;7.62;67.91
64853;BME280;56050;55.558;-4.644;2022-11-21T08:48:01;99399.84;;;7.64;67.78
64853;BME280;56050;55.558;-4.644;2022-11-21T08:50:27;99414.75;;;7.65;67.75
64853;BME280;56050;55.558;-4.644;2022-11-21T08:52:52;99411.28;;;7.68;67.82
64853;BME280;56050;55.558;-4.644;2022-11-21T08:55:18;99399.06;;;7.67;67.64
64853;BME280;56050;55.558;-4.644;2022-11-21T08:57:43;99398.66;;;7.68;67.82
64853;BME280;56050;55.558;-4.644;2022-11-21T09:00:10;99386.78;;;7.69;67.79
64853;BME280;56050;55.558;-4.644;2022-11-21T09:02:38;99390.97;;;7.70;67.61
64853;BME280;56050;55.558;-4.644;2022-11-21T09:05:04;99382.94;;;7.70;67.74
64853;BME280;56050;55.558;-4.644;2022-11-21T09:07:30;99384.47;;;7.72;67.65
64853;BME280;56050;55.558;-4.644;2022-11-21T09:09:55;99383.66;;;7.75;67.74
64853;BME280;56050;55.558;-4.644;2022-11-21T09:12:20;99373.28;;;7.77;67.57
64853;BME280;56050;55.558;-4.644;2022-11-21T09:14:46;99370.22;;;7.78;67.61
64853;BME280;56050;55.558;-4.644;2022-11-21T09:17:29;99374.41;;;7.79;67.49
64853;BME280;56050;55.558;-4.644;2022-11-21T09:20:13;99372.13;;;7.81;67.52
64853;BME280;56050;55.558;-4.644;2022-11-21T09:22:39;99355.22;;;7.84;67.57
64853;BME280;56050;55.558;-4.644;2022-11-21T09:25:04;99370.91;;;7.86;67.45
64853;BME280;56050;55.558;-4.644;2022-11-21T09:27:30;99353.66;;;7.87;67.48
64853;BME280;56050;55.558;-4.644;2022-11-21T09:29:55;99343.31;;;7.89;67.44
64853;BME280;56050;55.558;-4.644;2022-11-21T09:32:21;99336.03;;;7.89;67.63
64853;BME280;56050;55.558;-4.644;2022-11-21T09:34:46;99332.16;;;7.90;67.47
64853;BME280;56050;55.558;-4.644;2022-11-21T09:37:12;99337.91;;;7.92;67.49
64853;BME280;56050;55.558;-4.644;2022-11-21T09:39:37;99349.38;;;7.93;67.46
64853;BME280;56050;55.558;-4.644;2022-11-21T09:45:07;99325.19;;;7.96;67.51
64853;BME280;56050;55.558;-4.644;2022-11-21T09:47:37;99318.28;;;7.99;67.44
64853;BME280;56050;55.558;-4.644;2022-11-21T09:50:33;99317.88;;;8.00;67.50
64853;BME280;56050;55.558;-4.644;2022-11-21T09:53:10;99307.84;;;8.04;67.48
64853;BME280;56050;55.558;-4.644;2022-11-21T09:55:47;99314.75;;;8.05;67.38
64853;BME280;56050;55.558;-4.644;2022-11-21T09:58:22;99310.88;;;8.06;67.27
64853;BME280;56050;55.558;-4.644;2022-11-21T10:00:51;99305.91;;;8.08;67.38
64853;BME280;56050;55.558;-4.644;2022-11-21T10:03:19;99303.22;;;8.08;67.36
64853;BME280;56050;55.558;-4.644;2022-11-21T10:05:54;99292.50;;;8.08;67.20
64853;BME280;56050;55.558;-4.644;2022-11-21T10:08:28;99289.38;;;8.10;67.25
64853;BME280;56050;55.558;-4.644;2022-11-21T10:11:00;99283.63;;;8.11;67.17
64853;BME280;56050;55.558;-4.644;2022-11-21T10:19:44;99298.81;;;8.21;67.13
64853;BME280;56050;55.558;-4.644;2022-11-21T10:25:18;99282.25;;;8.26;67.00
64853;BME280;56050;55.558;-4.644;2022-11-21T10:30:41;99314.31;;;8.37;66.96
64853;BME280;56050;55.558;-4.644;2022-11-21T10:35:52;99306.88;;;8.48;66.67
64853;BME280;56050;55.558;-4.644;2022-11-21T10:38:22;99297.25;;;8.51;66.55
64853;BME280;56050;55.558;-4.644;2022-11-21T10:46:06;99283.31;;;8.59;66.20
64853;BME280;56050;55.558;-4.644;2022-11-21T10:48:31;99287.13;;;8.62;66.28
64853;BME280;56050;55.558;-4.644;2022-11-21T10:53:38;99284.00;;;8.67;66.20
64853;BME280;56050;55.558;-4.644;2022-11-21T10:56:24;99278.22;;;8.68;66.23
64853;BME280;56050;55.558;-4.644;2022-11-21T10:58:53;99276.63;;;8.71;66.17
64853;BME280;56050;55.558;-4.644;2022-11-21T11:01:33;99271.25;;;8.71;66.08
64853;BME280;56050;55.558;-4.644;2022-11-21T11:06:39;99249.72;;;8.74;65.92
64853;BME280;56050;55.558;-4.644;2022-11-21T11:09:05;99253.56;;;8.73;65.83
64853;BME280;56050;55.558;-4.644;2022-11-21T11:11:32;99243.59;;;8.74;65.82
64853;BME280;56050;55.558;-4.644;2022-11-21T11:14:04;99241.69;;;8.74;65.72
64853;BME280;56050;55.558;-4.644;2022-11-21T11:16:34;99243.59;;;8.74;65.73
64853;BME280;56050;55.558;-4.644;2022-11-21T11:24:26;99233.69;;;8.71;65.67
64853;BME280;56050;55.558;-4.644;2022-11-21T11:27:01;99231.41;;;8.69;65.72
64853;BME280;56050;55.558;-4.644;2022-11-21T11:29:29;99230.22;;;8.70;65.77
64853;BME280;56050;55.558;-4.644;2022-11-21T11:31:59;99229.84;;;8.72;65.70
64853;BME280;56050;55.558;-4.644;2022-11-21T11:34:55;99214.50;;;8.72;65.69
64853;BME280;56050;55.558;-4.644;2022-11-21T11:37:37;99209.84;;;8.73;65.65
64853;BME280;56050;55.558;-4.644;2022-11-21T11:49:08;99176.16;;;8.72;65.62
64853;BME280;56050;55.558;-4.644;2022-11-21T11:51:43;99162.72;;;8.72;65.55
64853;BME280;56050;55.558;-4.644;2022-11-21T11:54:22;99155.44;;;8.72;65.65
64853;BME280;56050;55.558;-4.644;2022-11-21T11:56:49;99155.72;;;8.78;65.64
64853;BME280;56050;55.558;-4.644;2022-11-21T11:59:22;99149.91;;;8.79;65.54
64853;BME280;56050;55.558;-4.644;2022-11-21T12:04:53;99149.03;;;8.86;65.23
64853;BME280;56050;55.558;-4.644;2022-11-21T12:07:35;99153.59;;;8.89;65.18
64853;BME280;56050;55.558;-4.644;2022-11-21T12:10:15;99150.47;;;8.91;64.95
64853;BME280;56050;55.558;-4.644;2022-11-21T12:13:10;99153.16;;;8.91;65.12
64853;BME280;56050;55.558;-4.644;2022-11-21T12:15:42;99144.63;;;8.96;64.99
64853;BME280;56050;55.558;-4.644;2022-11-21T12:42:40;99103.06;;;9.20;64.66
64853;BME280;56050;55.558;-4.644;2022-11-21T12:57:10;99085.03;;;9.20;64.45
64853;BME280;56050;55.558;-4.644;2022-11-21T13:02:29;99080.31;;;9.08;64.58
64853;BME280;56050;55.558;-4.644;2022-11-21T13:04:57;99082.28;;;9.04;64.56
64853;BME280;56050;55.558;-4.644;2022-11-21T13:07:25;99071.22;;;9.02;64.75
64853;BME280;56050;55.558;-4.644;2022-11-21T13:09:54;99063.91;;;9.03;64.75
64853;BME280;56050;55.558;-4.644;2022-11-21T13:15:28;99069.34;;;8.99;64.69
64853;BME280;56050;55.558;-4.644;2022-11-21T13:18:01;99067.44;;;9.00;64.78
64853;BME280;56050;55.558;-4.644;2022-11-21T13:20:33;99064.38;;;8.98;64.79
64853;BME280;56050;55.558;-4.644;2022-11-21T13:23:02;99063.66;;;8.97;64.80
64853;BME280;56050;55.558;-4.644;2022-11-21T13:30:50;99068.53;;;8.82;64.87
64853;BME280;56050;55.558;-4.644;2022-11-21T13:36:06;99061.81;;;8.74;64.86
64853;BME280;56050;55.558;-4.644;2022-11-21T13:57:50;99053.13;;;8.47;64.94
64853;BME280;56050;55.558;-4.644;2022-11-21T14:06:54;99053.97;;;8.44;65.07
64853;BME280;56050;55.558;-4.644;2022-11-21T14:14:53;99043.72;;;8.39;65.04
64853;BME280;56050;55.558;-4.644;2022-11-21T14:20:26;99034.91;;;8.39;65.08
64853;BME280;56050;55.558;-4.644;2022-11-21T14:22:57;99029.88;;;8.41;65.02
64853;BME280;56050;55.558;-4.644;2022-11-21T14:25:31;99037.91;;;8.41;64.92
64853;BME280;56050;55.558;-4.644;2022-11-21T14:27:58;99032.53;;;8.41;65.01
64853;BME280;56050;55.558;-4.644;2022-11-21T14:30:43;99028.00;;;8.38;65.21
64853;BME280;56050;55.558;-4.644;2022-11-21T14:33:21;99028.00;;;8.38;65.14
64853;BME280;56050;55.558;-4.644;2022-11-21T14:36:12;99018.53;;;8.33;65.04
64853;BME280;56050;55.558;-4.644;2022-11-21T14:38:42;99018.56;;;8.30;65.20
64853;BME280;56050;55.558;-4.644;2022-11-21T14:46:25;99004.53;;;8.22;65.34
64853;BME280;56050;55.558;-4.644;2022-11-21T14:48:51;99011.81;;;8.21;65.38
64853;BME280;56050;55.558;-4.644;2022-11-21T14:51:20;99014.91;;;8.20;65.39
64853;BME280;56050;55.558;-4.644;2022-11-21T14:53:48;99012.28;;;8.16;65.37
64853;BME280;56050;55.558;-4.644;2022-11-21T14:56:25;99011.53;;;8.16;65.46
64853;BME280;56050;55.558;-4.644;2022-11-21T14:58:53;99005.41;;;8.15;65.47
64853;BME280;56050;55.558;-4.644;2022-11-21T15:01:21;99010.41;;;8.13;65.37
64853;BME280;56050;55.558;-4.644;2022-11-21T15:06:20;99003.53;;;8.12;65.36
64853;BME280;56050;55.558;-4.644;2022-11-21T15:08:46;99000.84;;;8.12;65.31
64853;BME280;56050;55.558;-4.644;2022-11-21T15:11:12;99007.75;;;8.13;65.26
64853;BME280;56050;55.558;-4.644;2022-11-21T15:13:41;99016.19;;;8.12;65.34
64853;BME280;56050;55.558;-4.644;2022-11-21T15:16:07;99011.66;;;8.09;65.33
64853;BME280;56050;55.558;-4.644;2022-11-21T15:18:34;99002.09;;;8.08;65.39
64853;BME280;56050;55.558;-4.644;2022-11-21T15:21:01;99006.34;;;8.05;65.33
64853;BME280;56050;55.558;-4.644;2022-11-21T15:23:33;99013.63;;;8.05;65.31
64853;BME280;56050;55.558;-4.644;2022-11-21T15:26:00;99008.34;;;8.01;65.30
64853;BME280;56050;55.558;-4.644;2022-11-21T15:28:26;99015.63;;;8.01;65.31
64853;BME280;56050;55.558;-4.644;2022-11-21T15:31:14;99014.50;;;7.98;65.32
64853;BME280;56050;55.558;-4.644;2022-11-21T15:36:18;99011.81;;;7.98;65.13